createdAt,value
2022-09-21T00:02:27.531Z,100709.31
2022-09-21T00:05:17.171Z,100705.56
2022-09-21T00:08:06.786Z,100703.81
2022-09-21T00:10:54.656Z,100711.34
2022-09-21T00:13:43.355Z,100711.44
2022-09-21T00:16:32.679Z,100707.66
2022-09-21T00:19:20.563Z,100714.00
2022-09-21T00:22:09.805Z,100707.41
2022-09-21T00:24:57.867Z,100720.28
2022-09-21T00:27:47.754Z,100710.34
2022-09-21T00:30:35.656Z,100706.75
2022-09-21T00:33:24.578Z,100723.16
2022-09-21T00:36:14.638Z,100716.13
2022-09-21T00:39:04.721Z,100722.47
2022-09-21T00:41:53.596Z,100721.84
2022-09-21T00:44:41.459Z,100716.59
2022-09-21T00:47:34.195Z,100722.25
2022-09-21T00:50:25.029Z,100721.13
2022-09-21T00:53:12.965Z,100724.53
2022-09-21T00:56:04.886Z,100633.44
2022-09-21T00:58:55.395Z,100721.53
2022-09-21T01:01:43.674Z,100723.78
2022-09-21T01:04:32.591Z,100720.91
2022-09-21T01:07:26.204Z,100724.88
2022-09-21T01:10:18.381Z,100723.72
2022-09-21T01:13:17.926Z,100731.44
2022-09-21T01:16:13.859Z,100724.94
2022-09-21T01:19:13.929Z,100723.53
2022-09-21T01:22:09.419Z,100724.78
2022-09-21T01:25:10.241Z,100728.16
2022-09-21T01:28:08.347Z,100726.78
2022-09-21T01:31:05.987Z,100726.31
2022-09-21T01:33:58.408Z,100721.84
2022-09-21T01:36:49.215Z,100723.78
2022-09-21T01:39:39.805Z,100723.78
2022-09-21T01:42:30.996Z,100725.72
2022-09-21T01:45:21.952Z,100723.84
2022-09-21T01:48:13.616Z,100728.31
2022-09-21T01:51:06.344Z,100698.22
2022-09-21T01:53:58.564Z,100720.91
2022-09-21T01:56:52.096Z,100726.38
2022-09-21T01:59:50.141Z,100721.09
2022-09-21T02:02:43.069Z,100726.84
2022-09-21T02:05:33.030Z,100724.25
2022-09-21T02:08:21.211Z,100724.09
2022-09-21T02:11:12.654Z,100727.78
2022-09-21T02:14:00.839Z,100727.13
2022-09-21T02:16:58.353Z,100726.13
2022-09-21T02:19:50.832Z,100721.38
2022-09-21T02:22:45.404Z,100721.75
2022-09-21T02:25:42.400Z,100717.59
2022-09-21T02:28:45.375Z,100726.50
2022-09-21T02:31:39.876Z,100718.84
2022-09-21T02:34:34.329Z,100720.97
2022-09-21T02:37:31.134Z,100721.63
2022-09-21T02:40:26.831Z,100719.69
2022-09-21T02:43:22.746Z,100720.63
2022-09-21T02:46:15.996Z,100719.22
2022-09-21T02:49:09.137Z,100716.97
2022-09-21T02:52:00.144Z,100717.13
2022-09-21T02:54:52.052Z,100726.19
2022-09-21T02:57:42.126Z,100718.84
2022-09-21T03:00:30.456Z,100720.31
2022-09-21T03:03:20.436Z,100721.63
2022-09-21T03:06:08.607Z,100721.00
2022-09-21T03:08:58.479Z,100715.88
2022-09-21T03:11:46.429Z,100723.28
2022-09-21T03:14:35.640Z,100721.22
2022-09-21T03:17:23.524Z,100715.44
2022-09-21T03:20:11.381Z,100726.44
2022-09-21T03:22:59.332Z,100723.38
2022-09-21T03:25:48.003Z,100727.91
2022-09-21T03:28:35.870Z,100726.94
2022-09-21T03:31:25.113Z,100731.75
2022-09-21T03:34:13.514Z,100732.88
2022-09-21T03:37:01.757Z,100728.88
2022-09-21T03:39:49.662Z,100738.66
2022-09-21T03:42:37.543Z,100737.72
2022-09-21T03:45:27.270Z,100742.38
2022-09-21T03:48:16.700Z,100747.19
2022-09-21T03:51:04.911Z,100741.25
2022-09-21T03:53:52.798Z,100736.94
2022-09-21T03:56:40.678Z,100739.34
2022-09-21T03:59:28.604Z,100740.81
2022-09-21T04:02:16.831Z,100735.34
2022-09-21T04:05:07.709Z,100742.19
2022-09-21T04:07:57.204Z,100740.00
2022-09-21T04:10:45.091Z,100741.28
2022-09-21T04:13:35.187Z,100738.09
2022-09-21T04:16:24.152Z,100748.59
2022-09-21T04:19:12.235Z,100746.25
2022-09-21T04:22:01.464Z,100741.38
2022-09-21T04:24:49.385Z,100732.06
2022-09-21T04:27:37.257Z,100741.22
2022-09-21T04:30:25.147Z,100741.69
2022-09-21T04:33:14.148Z,100740.06
2022-09-21T04:36:02.319Z,100744.66
2022-09-21T04:38:52.423Z,100750.13
2022-09-21T04:41:40.412Z,100743.34
2022-09-21T04:44:28.322Z,100737.78
2022-09-21T04:47:16.247Z,100750.41
2022-09-21T04:50:04.675Z,100746.91
2022-09-21T04:52:52.579Z,100751.81
2022-09-21T04:55:41.809Z,100756.81
2022-09-21T04:58:29.739Z,100755.38
2022-09-21T05:01:17.676Z,100761.31
2022-09-21T05:04:05.704Z,100763.69
2022-09-21T05:06:54.029Z,100765.09
2022-09-21T05:09:59.690Z,100772.19
2022-09-21T05:12:48.944Z,100775.88
2022-09-21T05:15:38.260Z,100771.25
2022-09-21T05:18:26.138Z,100784.44
2022-09-21T05:21:15.395Z,100771.56
2022-09-21T05:24:03.624Z,100772.66
2022-09-21T05:26:51.521Z,100786.59
2022-09-21T05:29:41.867Z,100793.34
2022-09-21T05:32:42.326Z,100789.00
2022-09-21T05:35:36.651Z,100792.53
2022-09-21T05:38:25.036Z,100795.94
2022-09-21T05:41:13.583Z,100793.53
2022-09-21T05:44:02.076Z,100798.72
2022-09-21T05:46:59.053Z,100802.91
2022-09-21T05:49:56.263Z,100803.91
2022-09-21T05:52:52.425Z,100802.81
2022-09-21T05:55:53.024Z,100800.88
2022-09-21T05:58:48.443Z,100806.34
2022-09-21T06:01:50.943Z,100800.22
2022-09-21T06:04:20.446Z,100805.16
2022-09-21T06:06:48.041Z,100805.94
2022-09-21T06:09:15.643Z,100813.94
2022-09-21T06:11:43.291Z,100813.34
2022-09-21T06:14:10.877Z,100807.31
2022-09-21T06:16:39.673Z,100809.00
2022-09-21T06:19:07.486Z,100810.31
2022-09-21T06:21:36.410Z,100807.09
2022-09-21T06:24:04.388Z,100816.06
2022-09-21T06:26:31.994Z,100812.97
2022-09-21T06:29:00.217Z,100809.50
2022-09-21T06:31:28.034Z,100821.63
2022-09-21T06:33:55.647Z,100817.41
2022-09-21T06:36:23.422Z,100823.13
2022-09-21T06:38:52.359Z,100809.44
2022-09-21T06:41:21.382Z,100831.84
2022-09-21T06:43:49.300Z,100830.50
2022-09-21T06:46:16.962Z,100824.47
2022-09-21T06:48:44.688Z,100836.69
2022-09-21T06:51:12.286Z,100833.38
2022-09-21T06:53:39.893Z,100835.81
2022-09-21T06:56:11.225Z,100833.53
2022-09-21T06:58:38.902Z,100841.56
2022-09-21T07:01:08.337Z,100834.25
2022-09-21T07:03:36.663Z,100841.78
2022-09-21T07:06:04.452Z,100837.53
2022-09-21T07:11:22.021Z,100843.78
2022-09-21T07:13:49.589Z,100842.81
2022-09-21T07:16:18.655Z,100833.50
2022-09-21T07:18:46.510Z,100846.25
2022-09-21T07:21:14.723Z,100839.25
2022-09-21T07:23:42.590Z,100851.59
2022-09-21T07:26:12.782Z,100849.22
2022-09-21T07:28:42.282Z,100843.63
2022-09-21T07:31:12.111Z,100792.44
2022-09-21T07:33:40.069Z,100855.00
2022-09-21T07:36:11.730Z,100845.19
2022-09-21T07:38:40.935Z,100851.78
2022-09-21T07:41:08.879Z,100855.03
2022-09-21T07:43:39.206Z,100855.50
2022-09-21T07:46:09.246Z,100849.28
2022-09-21T07:48:37.230Z,100850.44
2022-09-21T07:51:06.302Z,100845.66
2022-09-21T07:53:34.549Z,100847.06
2022-09-21T07:56:03.374Z,100847.34
2022-09-21T07:58:48.938Z,100847.19
2022-09-21T08:01:18.032Z,100852.38
2022-09-21T08:03:45.795Z,100858.75
2022-09-21T08:06:13.346Z,100853.88
2022-09-21T08:08:41.627Z,100844.72
2022-09-21T08:11:11.754Z,100848.78
2022-09-21T08:13:39.376Z,100857.50
2022-09-21T08:16:07.726Z,100858.44
2022-09-21T08:18:39.629Z,100862.13
2022-09-21T08:21:08.481Z,100858.69
2022-09-21T08:23:40.156Z,100861.19
2022-09-21T08:26:08.390Z,100856.63
2022-09-21T08:28:36.540Z,100864.50
2022-09-21T08:31:05.964Z,100866.75
2022-09-21T08:33:33.665Z,100857.88
2022-09-21T08:36:03.445Z,100861.06
2022-09-21T08:38:35.468Z,100854.31
2022-09-21T08:41:04.343Z,100815.22
2022-09-21T08:43:36.999Z,100853.97
2022-09-21T08:46:08.818Z,100869.22
2022-09-21T08:48:41.148Z,100865.28
2022-09-21T08:51:14.071Z,100815.03
2022-09-21T08:53:44.751Z,100863.66
2022-09-21T08:56:14.121Z,100855.50
2022-09-21T08:58:42.343Z,100854.34
2022-09-21T09:01:29.590Z,100853.88
2022-09-21T09:04:19.513Z,100845.38
2022-09-21T09:06:57.838Z,100845.63
2022-09-21T09:09:40.886Z,100841.28
2022-09-21T09:12:20.373Z,100842.13
2022-09-21T09:15:08.615Z,100845.72
2022-09-21T09:17:50.856Z,100843.38
2022-09-21T09:20:31.054Z,100837.00
2022-09-21T09:23:07.969Z,100831.66
2022-09-21T09:25:38.787Z,100837.31
2022-09-21T09:28:23.554Z,100833.09
2022-09-21T09:30:58.549Z,100828.06
2022-09-21T09:33:31.489Z,100823.78
2022-09-21T09:36:03.391Z,100827.00
2022-09-21T09:38:38.020Z,100828.22
2022-09-21T09:41:19.391Z,100837.00
2022-09-21T09:44:00.312Z,100829.84
2022-09-21T09:46:34.791Z,100826.38
2022-09-21T09:49:17.525Z,100828.34
2022-09-21T09:51:47.061Z,100816.06
2022-09-21T09:54:17.280Z,100816.88
2022-09-21T09:56:45.308Z,100811.34
2022-09-21T09:59:25.632Z,100816.06
2022-09-21T10:02:01.762Z,100805.41
2022-09-21T10:04:29.763Z,100808.59
2022-09-21T10:06:58.789Z,100807.81
2022-09-21T10:09:29.260Z,100810.19
2022-09-21T10:12:00.749Z,100809.38
2022-09-21T10:14:33.660Z,100793.47
2022-09-21T10:17:06.844Z,100800.63
2022-09-21T10:19:34.930Z,100798.69
2022-09-21T10:22:05.870Z,100792.72
2022-09-21T10:24:37.417Z,100792.28
2022-09-21T10:27:10.252Z,100791.94
2022-09-21T10:29:44.146Z,100789.94
2022-09-21T10:32:24.710Z,100787.94
2022-09-21T10:35:16.660Z,100785.75
2022-09-21T10:37:53.583Z,100792.66
2022-09-21T10:40:26.931Z,100800.63
2022-09-21T10:42:56.259Z,100795.63
2022-09-21T10:45:26.443Z,100782.34
2022-09-21T10:47:57.242Z,100782.56
2022-09-21T10:50:28.572Z,100785.94
2022-09-21T10:53:01.772Z,100778.38
2022-09-21T10:55:32.888Z,100757.63
2022-09-21T10:58:01.048Z,100767.00
2022-09-21T11:00:42.958Z,100766.75
2022-09-21T11:03:48.000Z,100757.41
2022-09-21T11:06:19.388Z,100754.53
2022-09-21T11:08:56.038Z,100771.75
2022-09-21T11:11:47.586Z,100753.59
2022-09-21T11:14:28.905Z,100764.59
2022-09-21T11:16:59.063Z,100755.84
2022-09-21T11:19:34.664Z,100757.22
2022-09-21T11:22:08.574Z,100754.91
2022-09-21T11:24:45.970Z,100752.63
2022-09-21T11:27:18.779Z,100746.75
2022-09-21T11:29:55.314Z,100734.31
2022-09-21T11:32:38.707Z,100736.84
2022-09-21T11:35:28.902Z,100728.91
2022-09-21T11:38:06.035Z,100736.38
2022-09-21T11:40:48.839Z,100741.13
2022-09-21T11:43:33.121Z,100742.94
2022-09-21T11:46:11.771Z,100749.69
2022-09-21T11:48:53.823Z,100744.16
2022-09-21T11:51:42.531Z,100741.03
2022-09-21T11:54:34.825Z,100733.31
2022-09-21T11:57:11.165Z,100728.69
2022-09-21T11:59:50.736Z,100726.41
2022-09-21T12:02:44.329Z,100729.03
2022-09-21T12:05:20.329Z,100726.34
2022-09-21T12:08:16.521Z,100726.34
2022-09-21T12:10:53.753Z,100722.78
2022-09-21T12:13:31.915Z,100717.16
2022-09-21T12:16:12.282Z,100716.94
2022-09-21T12:18:48.053Z,100714.00
2022-09-21T12:21:22.109Z,100708.53
2022-09-21T12:23:53.154Z,100713.97
2022-09-21T12:26:26.133Z,100705.78
2022-09-21T12:29:00.957Z,100696.38
2022-09-21T12:31:36.206Z,100709.78
2022-09-21T12:34:10.271Z,100695.38
2022-09-21T12:36:42.809Z,100699.94
2022-09-21T12:39:20.355Z,100700.78
2022-09-21T12:41:55.449Z,100696.91
2022-09-21T12:44:33.611Z,100693.53
2022-09-21T12:47:10.040Z,100702.13
2022-09-21T12:49:42.605Z,100703.03
2022-09-21T12:52:16.048Z,100699.63
2022-09-21T12:54:51.989Z,100692.13
2022-09-21T12:57:49.122Z,100682.63
2022-09-21T13:00:22.062Z,100676.94
2022-09-21T13:02:55.149Z,100691.13
2022-09-21T13:05:38.651Z,100686.53
2022-09-21T13:08:13.247Z,100692.56
2022-09-21T13:10:44.662Z,100670.13
2022-09-21T13:13:24.443Z,100689.31
2022-09-21T13:15:53.859Z,100683.19
2022-09-21T13:18:25.717Z,100687.63
2022-09-21T13:20:54.340Z,100671.84
2022-09-21T13:23:35.235Z,100677.72
2022-09-21T13:26:05.822Z,100675.78
2022-09-21T13:29:03.544Z,100669.94
2022-09-21T13:31:43.223Z,100680.88
2022-09-21T13:34:33.348Z,100666.47
2022-09-21T13:37:34.158Z,100669.47
2022-09-21T13:40:38.683Z,100660.69
2022-09-21T13:43:47.978Z,100660.41
2022-09-21T13:46:49.532Z,100658.88
2022-09-21T13:49:22.881Z,100655.88
2022-09-21T13:51:58.287Z,100661.81
2022-09-21T13:54:30.822Z,100656.34
2022-09-21T13:57:08.582Z,100654.06
2022-09-21T13:59:39.239Z,100655.47
2022-09-21T14:02:25.184Z,100651.38
2022-09-21T14:04:53.192Z,100650.06
2022-09-21T14:07:21.196Z,100645.81
2022-09-21T14:09:57.301Z,100646.38
2022-09-21T14:12:29.529Z,100648.25
2022-09-21T14:15:31.453Z,100643.53
2022-09-21T14:18:36.723Z,100647.88
2022-09-21T14:21:18.879Z,100643.88
2022-09-21T14:24:20.156Z,100639.28
2022-09-21T14:26:56.086Z,100642.28
2022-09-21T14:29:29.016Z,100643.06
2022-09-21T14:32:00.834Z,100635.28
2022-09-21T14:34:36.684Z,100645.63
2022-09-21T14:37:12.609Z,100637.06
2022-09-21T14:39:45.905Z,100633.22
2022-09-21T14:42:19.423Z,100637.59
2022-09-21T14:44:49.866Z,100590.41
2022-09-21T14:47:38.037Z,100639.53
2022-09-21T14:50:28.496Z,100628.38
2022-09-21T14:53:28.079Z,100547.97
2022-09-21T14:56:15.544Z,100626.84
2022-09-21T14:58:58.848Z,100626.34
2022-09-21T15:01:38.283Z,100621.72
2022-09-21T15:04:24.290Z,100619.50
2022-09-21T15:07:20.934Z,100615.66
2022-09-21T15:10:32.373Z,100610.59
2022-09-21T15:13:07.645Z,100616.66
2022-09-21T15:15:41.274Z,100611.22
2022-09-21T15:18:17.801Z,100595.97
2022-09-21T15:20:46.137Z,100600.69
2022-09-21T15:23:20.168Z,100600.22
2022-09-21T15:25:59.439Z,100605.00
2022-09-21T15:28:35.055Z,100612.69
2022-09-21T15:31:10.075Z,100611.16
2022-09-21T15:33:40.080Z,100607.69
2022-09-21T15:36:09.548Z,100606.47
2022-09-21T15:38:39.272Z,100604.16
2022-09-21T15:41:11.484Z,100600.72
2022-09-21T15:43:41.534Z,100598.78
2022-09-21T15:46:13.452Z,100602.78
2022-09-21T15:48:42.412Z,100602.84
2022-09-21T15:51:15.208Z,100605.72
2022-09-21T15:53:48.107Z,100599.78
2022-09-21T15:56:20.636Z,100609.72
2022-09-21T15:58:49.796Z,100604.63
2022-09-21T16:01:21.441Z,100603.06
2022-09-21T16:03:53.928Z,100608.63
2022-09-21T16:06:27.111Z,100605.50
2022-09-21T16:08:56.635Z,100602.34
2022-09-21T16:11:35.775Z,100607.91
2022-09-21T16:14:27.137Z,100600.81
2022-09-21T16:17:21.604Z,100604.00
2022-09-21T16:20:22.903Z,100604.81
2022-09-21T16:22:55.309Z,100602.44
2022-09-21T16:25:32.647Z,100609.59
2022-09-21T16:28:02.381Z,100615.53
2022-09-21T16:30:48.665Z,100615.50
2022-09-21T16:33:41.074Z,100623.06
2022-09-21T16:36:38.005Z,100627.00
2022-09-21T16:39:12.814Z,100623.81
2022-09-21T16:41:48.208Z,100624.59
2022-09-21T16:44:20.781Z,100630.09
2022-09-21T16:46:51.862Z,100627.28
2022-09-21T16:49:21.743Z,100630.81
2022-09-21T16:51:50.459Z,100629.56
2022-09-21T16:54:20.044Z,100638.59
2022-09-21T16:56:49.083Z,100632.56
2022-09-21T16:59:19.477Z,100624.97
2022-09-21T17:01:55.372Z,100638.28
2022-09-21T17:04:25.742Z,100640.13
2022-09-21T17:06:55.059Z,100640.00
2022-09-21T17:09:29.178Z,100638.25
2022-09-21T17:12:00.194Z,100644.03
2022-09-21T17:14:34.908Z,100640.69
2022-09-21T17:17:05.672Z,100640.06
2022-09-21T17:19:34.735Z,100642.25
2022-09-21T17:22:03.655Z,100647.97
2022-09-21T17:24:49.198Z,100649.38
2022-09-21T17:27:19.840Z,100651.53
2022-09-21T17:29:49.183Z,100652.94
2022-09-21T17:32:19.946Z,100651.91
2022-09-21T17:34:50.200Z,100653.28
2022-09-21T17:37:17.821Z,100646.28
2022-09-21T17:39:46.261Z,100652.78
2022-09-21T17:42:18.743Z,100643.09
2022-09-21T17:45:12.319Z,100650.41
2022-09-21T17:47:40.738Z,100647.34
2022-09-21T17:50:22.878Z,100651.38
2022-09-21T17:53:08.790Z,100650.03
2022-09-21T17:55:37.094Z,100656.13
2022-09-21T17:58:14.768Z,100658.22
2022-09-21T18:00:50.565Z,100654.38
2022-09-21T18:03:22.320Z,100655.75
2022-09-21T18:05:52.663Z,100660.66
2022-09-21T18:08:20.863Z,100646.91
2022-09-21T18:10:58.261Z,100658.72
2022-09-21T18:13:38.118Z,100662.44
2022-09-21T18:16:21.232Z,100657.00
2022-09-21T18:18:56.236Z,100664.50
2022-09-21T18:21:27.870Z,100664.69
2022-09-21T18:24:22.501Z,100665.69
2022-09-21T18:26:52.467Z,100666.41
2022-09-21T18:29:39.387Z,100674.47
2022-09-21T18:32:26.532Z,100668.34
2022-09-21T18:35:21.847Z,100668.88
2022-09-21T18:38:18.876Z,100672.34
2022-09-21T18:41:21.330Z,100665.63
2022-09-21T18:44:14.655Z,100669.41
2022-09-21T18:47:10.794Z,100672.13
2022-09-21T18:50:06.226Z,100673.09
2022-09-21T18:53:02.367Z,100677.59
2022-09-21T18:55:52.080Z,100690.22
2022-09-21T18:58:41.532Z,100680.75
2022-09-21T19:01:33.157Z,100691.13
2022-09-21T19:04:21.591Z,100675.66
2022-09-21T19:07:21.048Z,100653.31
2022-09-21T19:10:16.177Z,100695.50
2022-09-21T19:13:27.830Z,100691.06
2022-09-21T19:16:24.912Z,100694.06
2022-09-21T19:19:25.517Z,100690.06
2022-09-21T19:22:20.153Z,100688.03
2022-09-21T19:25:17.110Z,100694.31
2022-09-21T19:28:22.414Z,100681.03
2022-09-21T19:31:12.611Z,100687.88
2022-09-21T19:34:06.507Z,100684.34
2022-09-21T19:36:57.067Z,100698.94
2022-09-21T19:39:46.783Z,100690.13
2022-09-21T19:42:42.354Z,100688.72
2022-09-21T19:45:36.859Z,100683.41
2022-09-21T19:48:28.439Z,100684.53
2022-09-21T19:51:21.054Z,100660.38
2022-09-21T19:54:31.945Z,100682.25
2022-09-21T19:57:40.498Z,100684.38
2022-09-21T20:00:28.759Z,100681.28
2022-09-21T20:03:27.013Z,100682.88
2022-09-21T20:06:21.439Z,100679.44
2022-09-21T20:09:15.770Z,100675.63
2022-09-21T20:12:10.990Z,100676.69
2022-09-21T20:15:11.668Z,100672.88
2022-09-21T20:18:05.324Z,100671.97
2022-09-21T20:20:53.708Z,100674.91
2022-09-21T20:23:42.536Z,100664.91
2022-09-21T20:26:30.941Z,100676.66
2022-09-21T20:29:19.925Z,100657.97
2022-09-21T20:32:10.501Z,100667.38
2022-09-21T20:34:58.961Z,100677.13
2022-09-21T20:37:47.377Z,100675.84
2022-09-21T20:40:35.715Z,100676.84
2022-09-21T20:43:30.280Z,100678.69
2022-09-21T20:46:20.413Z,100678.69
2022-09-21T20:49:09.709Z,100668.41
2022-09-21T20:51:59.182Z,100672.38
2022-09-21T20:54:49.581Z,100678.59
2022-09-21T20:57:38.189Z,100679.88
2022-09-21T21:00:26.666Z,100687.66
2022-09-21T21:03:14.577Z,100678.63
2022-09-21T21:06:11.495Z,100673.16
2022-09-21T21:08:59.636Z,100675.03
2022-09-21T21:11:47.620Z,100683.47
2022-09-21T21:14:35.655Z,100675.38
2022-09-21T21:17:23.622Z,100672.03
2022-09-21T21:20:11.843Z,100676.38
2022-09-21T21:23:05.804Z,100671.88
2022-09-21T21:25:55.683Z,100676.28
2022-09-21T21:28:43.587Z,100672.41
2022-09-21T21:31:31.994Z,100670.63
2022-09-21T21:34:19.858Z,100673.28
2022-09-21T21:37:08.724Z,100670.97
2022-09-21T21:39:58.440Z,100667.53
2022-09-21T21:42:46.884Z,100670.63
2022-09-21T21:45:34.808Z,100663.56
2022-09-21T21:48:22.935Z,100666.75
2022-09-21T21:51:10.768Z,100664.97
2022-09-21T21:53:58.711Z,100654.78
2022-09-21T21:56:48.016Z,100655.50
2022-09-21T21:59:36.163Z,100656.03
2022-09-21T22:02:24.440Z,100657.53
2022-09-21T22:05:12.394Z,100651.06
2022-09-21T22:08:00.285Z,100651.97
2022-09-21T22:10:50.167Z,100660.25
2022-09-21T22:13:41.017Z,100658.25
2022-09-21T22:16:30.236Z,100659.22
2022-09-21T22:19:18.940Z,100653.81
2022-09-21T22:22:06.812Z,100652.31
2022-09-21T22:24:55.068Z,100654.53
2022-09-21T22:27:42.966Z,100656.94
2022-09-21T22:30:32.483Z,100649.47
2022-09-21T22:33:20.354Z,100652.91
2022-09-21T22:36:10.129Z,100649.03
2022-09-21T22:38:58.456Z,100650.72
2022-09-21T22:41:46.349Z,100650.63
2022-09-21T22:44:34.226Z,100651.94
2022-09-21T22:47:23.470Z,100643.72
2022-09-21T22:50:11.311Z,100646.09
2022-09-21T22:52:59.176Z,100657.63
2022-09-21T22:55:47.120Z,100653.72
2022-09-21T22:58:36.289Z,100644.25
2022-09-21T23:01:26.278Z,100651.69
2022-09-21T23:04:15.650Z,100651.16
2022-09-21T23:07:03.601Z,100645.22
2022-09-21T23:09:51.516Z,100653.91
2022-09-21T23:12:39.381Z,100644.34
2022-09-21T23:15:27.310Z,100646.19
2022-09-21T23:18:15.170Z,100651.69
2022-09-21T23:21:06.288Z,100608.72
2022-09-21T23:23:56.004Z,100639.47
2022-09-21T23:26:44.019Z,100631.06
2022-09-21T23:29:32.352Z,100639.19
2022-09-21T23:32:20.231Z,100631.13
2022-09-21T23:35:08.736Z,100633.53
2022-09-21T23:37:57.965Z,100630.69
2022-09-21T23:40:45.915Z,100623.25
2022-09-21T23:43:35.438Z,100632.47
2022-09-21T23:46:25.553Z,100625.81
2022-09-21T23:49:13.536Z,100628.31
2022-09-21T23:52:02.332Z,100630.94
2022-09-21T23:54:51.592Z,100631.28
2022-09-21T23:57:39.473Z,100618.53
